Bossier City, Louisiana
Current Conditions -  °F | °C
As of 9:53 AM on Wednesday 22 Oct 2014 (Local Time) from KDTN Reporting Station
Clear Clear  
Wind Chill: 67°   Ceiling: Unl
Heat Index: 67°   Visibility: 10mi
Dew Point: 54°   Wind: 6mph
Humidity: 63%   Direction: 100°E
Pressure: 30.17"   Gusts: NA
Location:  32.52°N, 93.73°W
Report Text: KDTN 221453Z 10005KT 10SM CLR 19/12 A3017 RMK AO2 SLP216 T01940122 53017
Loading
Personal Weather Stations






























Interactive Weather Map
Tropical Storm Tracking
New forecast layout! Learn more

10-Day Weather Forecast

Advertisements
Track Severe Weather on mobile